sensor_id;sensor_type;location;lat;lon;timestamp;temperature;humidity
15967;DHT22;15175;48.154;11.534;2024-03-23T00:57:11;13.00;99.90
15967;DHT22;15175;48.154;11.534;2024-03-23T01:03:14;13.00;99.90
15967;DHT22;15175;48.154;11.534;2024-03-23T01:09:16;13.10;99.90
15967;DHT22;15175;48.154;11.534;2024-03-23T01:15:20;13.10;99.90
15967;DHT22;15175;48.154;11.534;2024-03-23T01:21:22;13.10;99.90
15967;DHT22;15175;48.154;11.534;2024-03-23T01:27:25;13.00;99.90
15967;DHT22;15175;48.154;11.534;2024-03-23T01:33:29;12.90;99.90
15967;DHT22;15175;48.154;11.534;2024-03-23T01:39:31;12.80;99.90
15967;DHT22;15175;48.154;11.534;2024-03-23T01:45:34;12.70;99.90
15967;DHT22;15175;48.154;11.534;2024-03-23T01:51:38;12.60;99.90
15967;DHT22;15175;48.154;11.534;2024-03-23T01:57:40;12.60;99.90
15967;DHT22;15175;48.154;11.534;2024-03-23T02:03:43;12.50;99.90
15967;DHT22;15175;48.154;11.534;2024-03-23T02:09:47;12.40;99.90
15967;DHT22;15175;48.154;11.534;2024-03-23T02:15:49;12.30;99.90
15967;DHT22;15175;48.154;11.534;2024-03-23T02:21:52;12.20;99.90
15967;DHT22;15175;48.154;11.534;2024-03-23T02:27:56;12.10;99.90
15967;DHT22;15175;48.154;11.534;2024-03-23T02:33:59;12.10;99.90
15967;DHT22;15175;48.154;11.534;2024-03-23T02:40:02;12.00;99.90
15967;DHT22;15175;48.154;11.534;2024-03-23T02:46:06;11.90;99.90
15967;DHT22;15175;48.154;11.534;2024-03-23T02:52:08;11.80;99.90
15967;DHT22;15175;48.154;11.534;2024-03-23T02:58:11;11.80;99.90
15967;DHT22;15175;48.154;11.534;2024-03-23T03:04:14;11.70;99.90
15967;DHT22;15175;48.154;11.534;2024-03-23T03:10:17;11.70;99.90
15967;DHT22;15175;48.154;11.534;2024-03-23T03:16:19;11.70;99.90
15967;DHT22;15175;48.154;11.534;2024-03-23T03:22:23;11.60;99.90
15967;DHT22;15175;48.154;11.534;2024-03-23T03:28:26;11.50;99.90
15967;DHT22;15175;48.154;11.534;2024-03-23T03:34:31;11.40;99.90
15967;DHT22;15175;48.154;11.534;2024-03-23T03:40:35;11.30;99.90
15967;DHT22;15175;48.154;11.534;2024-03-23T03:46:38;11.20;99.90
15967;DHT22;15175;48.154;11.534;2024-03-23T03:52:40;11.10;99.90
15967;DHT22;15175;48.154;11.534;2024-03-23T03:58:44;11.00;99.90
15967;DHT22;15175;48.154;11.534;2024-03-23T04:04:46;10.90;99.90
15967;DHT22;15175;48.154;11.534;2024-03-23T04:10:49;10.80;99.90
15967;DHT22;15175;48.154;11.534;2024-03-23T04:16:53;10.80;99.90
15967;DHT22;15175;48.154;11.534;2024-03-23T04:22:56;10.80;99.90
15967;DHT22;15175;48.154;11.534;2024-03-23T04:28:58;10.80;99.90
15967;DHT22;15175;48.154;11.534;2024-03-23T04:35:03;10.90;99.90
15967;DHT22;15175;48.154;11.534;2024-03-23T04:41:10;10.90;99.90
15967;DHT22;15175;48.154;11.534;2024-03-23T04:47:12;11.00;99.90
15967;DHT22;15175;48.154;11.534;2024-03-23T04:53:16;11.10;99.90
15967;DHT22;15175;48.154;11.534;2024-03-23T04:59:19;11.20;99.90
15967;DHT22;15175;48.154;11.534;2024-03-23T05:05:22;11.20;99.90
15967;DHT22;15175;48.154;11.534;2024-03-23T05:11:26;11.20;99.90
15967;DHT22;15175;48.154;11.534;2024-03-23T05:17:28;11.30;99.90
15967;DHT22;15175;48.154;11.534;2024-03-23T05:23:31;11.40;99.90
15967;DHT22;15175;48.154;11.534;2024-03-23T05:29:34;11.40;99.90
15967;DHT22;15175;48.154;11.534;2024-03-23T05:35:37;11.40;99.90
15967;DHT22;15175;48.154;11.534;2024-03-23T05:41:39;11.50;99.90
15967;DHT22;15175;48.154;11.534;2024-03-23T05:47:43;11.60;99.90
15967;DHT22;15175;48.154;11.534;2024-03-23T05:53:46;11.70;99.90
15967;DHT22;15175;48.154;11.534;2024-03-23T05:59:48;11.90;99.90
15967;DHT22;15175;48.154;11.534;2024-03-23T06:05:52;12.20;99.90
15967;DHT22;15175;48.154;11.534;2024-03-23T06:11:55;12.90;99.90
15967;DHT22;15175;48.154;11.534;2024-03-23T06:17:57;13.60;99.90
15967;DHT22;15175;48.154;11.534;2024-03-23T06:24:01;14.00;99.90
15967;DHT22;15175;48.154;11.534;2024-03-23T06:30:05;14.20;99.90
15967;DHT22;15175;48.154;11.534;2024-03-23T06:36:11;14.30;99.90
15967;DHT22;15175;48.154;11.534;2024-03-23T06:42:15;14.00;99.90
15967;DHT22;15175;48.154;11.534;2024-03-23T06:48:17;14.20;99.90
15967;DHT22;15175;48.154;11.534;2024-03-23T06:54:20;14.50;99.90
15967;DHT22;15175;48.154;11.534;2024-03-23T07:00:24;15.30;99.90
15967;DHT22;15175;48.154;11.534;2024-03-23T07:06:26;16.00;99.90
15967;DHT22;15175;48.154;11.534;2024-03-23T07:12:28;16.40;99.90
15967;DHT22;15175;48.154;11.534;2024-03-23T07:18:32;16.00;99.90
15967;DHT22;15175;48.154;11.534;2024-03-23T07:24:35;15.50;99.90
15967;DHT22;15175;48.154;11.534;2024-03-23T07:30:40;15.10;99.90
15967;DHT22;15175;48.154;11.534;2024-03-23T07:36:44;15.00;99.90
15967;DHT22;15175;48.154;11.534;2024-03-23T07:42:46;14.90;99.90
15967;DHT22;15175;48.154;11.534;2024-03-23T07:48:48;14.60;99.90
15967;DHT22;15175;48.154;11.534;2024-03-23T07:54:52;13.70;99.90
15967;DHT22;15175;48.154;11.534;2024-03-23T08:00:55;12.80;99.90
15967;DHT22;15175;48.154;11.534;2024-03-23T08:06:58;12.30;99.90
15967;DHT22;15175;48.154;11.534;2024-03-23T08:13:02;11.90;99.90
15967;DHT22;15175;48.154;11.534;2024-03-23T08:19:04;11.50;99.90
15967;DHT22;15175;48.154;11.534;2024-03-23T08:25:09;11.20;99.90
15967;DHT22;15175;48.154;11.534;2024-03-23T08:31:13;11.00;99.90
15967;DHT22;15175;48.154;11.534;2024-03-23T08:37:16;11.00;99.90
15967;DHT22;15175;48.154;11.534;2024-03-23T08:43:19;10.70;99.90
15967;DHT22;15175;48.154;11.534;2024-03-23T08:49:22;10.30;99.90
15967;DHT22;15175;48.154;11.534;2024-03-23T08:55:25;10.10;99.90
15967;DHT22;15175;48.154;11.534;2024-03-23T09:01:28;10.00;99.90
15967;DHT22;15175;48.154;11.534;2024-03-23T09:07:32;9.80;99.90
15967;DHT22;15175;48.154;11.534;2024-03-23T09:13:35;9.60;99.90
15967;DHT22;15175;48.154;11.534;2024-03-23T09:19:38;9.50;99.90
15967;DHT22;15175;48.154;11.534;2024-03-23T09:25:42;9.50;99.90
15967;DHT22;15175;48.154;11.534;2024-03-23T09:31:44;9.50;99.90
15967;DHT22;15175;48.154;11.534;2024-03-23T09:37:46;9.40;99.90
15967;DHT22;15175;48.154;11.534;2024-03-23T09:43:52;9.40;99.90
15967;DHT22;15175;48.154;11.534;2024-03-23T09:49:55;9.30;99.90
15967;DHT22;15175;48.154;11.534;2024-03-23T09:55:57;9.10;99.90
15967;DHT22;15175;48.154;11.534;2024-03-23T10:02:01;9.10;99.90
15967;DHT22;15175;48.154;11.534;2024-03-23T10:08:17;9.00;99.90
15967;DHT22;15175;48.154;11.534;2024-03-23T10:26:36;8.50;99.90
15967;DHT22;15175;48.154;11.534;2024-03-23T10:32:39;8.60;99.90
15967;DHT22;15175;48.154;11.534;2024-03-23T10:38:44;8.60;99.90
15967;DHT22;15175;48.154;11.534;2024-03-23T10:44:46;8.60;99.90
15967;DHT22;15175;48.154;11.534;2024-03-23T10:50:51;8.60;99.90
15967;DHT22;15175;48.154;11.534;2024-03-23T11:03:32;8.10;99.90
15967;DHT22;15175;48.154;11.534;2024-03-23T11:09:40;8.10;99.90
15967;DHT22;15175;48.154;11.534;2024-03-23T11:15:47;8.10;99.90
15967;DHT22;15175;48.154;11.534;2024-03-23T11:21:53;8.20;99.90
15967;DHT22;15175;48.154;11.534;2024-03-23T11:27:56;8.30;99.90
15967;DHT22;15175;48.154;11.534;2024-03-23T11:34:05;8.30;99.90
15967;DHT22;15175;48.154;11.534;2024-03-23T11:40:20;8.40;99.90
15967;DHT22;15175;48.154;11.534;2024-03-23T11:46:23;8.40;99.90
15967;DHT22;15175;48.154;11.534;2024-03-23T11:52:27;8.60;99.90
15967;DHT22;15175;48.154;11.534;2024-03-23T11:58:29;8.60;99.90
15967;DHT22;15175;48.154;11.534;2024-03-23T12:04:33;8.70;99.90
15967;DHT22;15175;48.154;11.534;2024-03-23T12:10:38;8.80;99.90
15967;DHT22;15175;48.154;11.534;2024-03-23T12:16:40;8.60;99.90
15967;DHT22;15175;48.154;11.534;2024-03-23T12:22:43;8.60;99.90
15967;DHT22;15175;48.154;11.534;2024-03-23T12:28:49;8.60;99.90
15967;DHT22;15175;48.154;11.534;2024-03-23T12:34:51;8.70;99.90
15967;DHT22;15175;48.154;11.534;2024-03-23T12:40:54;8.90;99.90
15967;DHT22;15175;48.154;11.534;2024-03-23T12:46:58;9.10;99.90
15967;DHT22;15175;48.154;11.534;2024-03-23T12:53:00;9.10;99.90
15967;DHT22;15175;48.154;11.534;2024-03-23T12:59:02;9.20;99.90
15967;DHT22;15175;48.154;11.534;2024-03-23T13:05:07;9.20;99.90
15967;DHT22;15175;48.154;11.534;2024-03-23T13:11:10;9.10;99.90
15967;DHT22;15175;48.154;11.534;2024-03-23T13:17:13;9.10;99.90
15967;DHT22;15175;48.154;11.534;2024-03-23T13:23:17;9.10;99.90
15967;DHT22;15175;48.154;11.534;2024-03-23T13:29:20;9.20;99.90
15967;DHT22;15175;48.154;11.534;2024-03-23T13:35:23;9.30;99.90
15967;DHT22;15175;48.154;11.534;2024-03-23T13:41:27;9.20;99.90
15967;DHT22;15175;48.154;11.534;2024-03-23T13:47:29;9.20;99.90
15967;DHT22;15175;48.154;11.534;2024-03-23T13:53:32;9.30;99.90
15967;DHT22;15175;48.154;11.534;2024-03-23T13:59:36;9.20;99.90
15967;DHT22;15175;48.154;11.534;2024-03-23T14:05:39;8.50;99.90
15967;DHT22;15175;48.154;11.534;2024-03-23T14:11:42;7.50;99.90
15967;DHT22;15175;48.154;11.534;2024-03-23T14:17:45;7.30;99.90
15967;DHT22;15175;48.154;11.534;2024-03-23T14:23:48;7.20;99.90
15967;DHT22;15175;48.154;11.534;2024-03-23T14:29:50;7.50;99.90
15967;DHT22;15175;48.154;11.534;2024-03-23T14:35:55;7.50;99.90
15967;DHT22;15175;48.154;11.534;2024-03-23T14:41:58;7.70;99.90
15967;DHT22;15175;48.154;11.534;2024-03-23T14:48:00;7.80;99.90
15967;DHT22;15175;48.154;11.534;2024-03-23T14:54:10;7.90;99.90
15967;DHT22;15175;48.154;11.534;2024-03-23T15:00:14;7.70;99.90
15967;DHT22;15175;48.154;11.534;2024-03-23T15:06:19;7.50;99.90
15967;DHT22;15175;48.154;11.534;2024-03-23T15:12:23;7.30;99.90
15967;DHT22;15175;48.154;11.534;2024-03-23T15:18:26;6.90;99.90
15967;DHT22;15175;48.154;11.534;2024-03-23T15:24:29;6.90;99.90
15967;DHT22;15175;48.154;11.534;2024-03-23T15:30:34;6.70;99.90
15967;DHT22;15175;48.154;11.534;2024-03-23T15:36:36;6.60;99.90
15967;DHT22;15175;48.154;11.534;2024-03-23T15:42:40;6.50;99.90
15967;DHT22;15175;48.154;11.534;2024-03-23T15:48:44;6.40;99.90
15967;DHT22;15175;48.154;11.534;2024-03-23T15:54:48;6.30;99.90
15967;DHT22;15175;48.154;11.534;2024-03-23T16:00:55;6.40;99.90
15967;DHT22;15175;48.154;11.534;2024-03-23T16:06:59;6.60;99.90
15967;DHT22;15175;48.154;11.534;2024-03-23T16:13:01;6.70;99.90
15967;DHT22;15175;48.154;11.534;2024-03-23T16:19:03;6.80;99.90
15967;DHT22;15175;48.154;11.534;2024-03-23T16:25:08;6.70;99.90
15967;DHT22;15175;48.154;11.534;2024-03-23T16:31:10;6.70;99.90
15967;DHT22;15175;48.154;11.534;2024-03-23T16:37:13;6.80;99.90
15967;DHT22;15175;48.154;11.534;2024-03-23T16:43:16;6.80;99.90
15967;DHT22;15175;48.154;11.534;2024-03-23T16:49:20;6.90;99.90
15967;DHT22;15175;48.154;11.534;2024-03-23T16:55:22;6.90;99.90
15967;DHT22;15175;48.154;11.534;2024-03-23T17:01:26;6.90;99.90
15967;DHT22;15175;48.154;11.534;2024-03-23T17:07:29;6.90;99.90
15967;DHT22;15175;48.154;11.534;2024-03-23T17:13:33;6.60;99.90
15967;DHT22;15175;48.154;11.534;2024-03-23T17:19:37;6.30;99.90
15967;DHT22;15175;48.154;11.534;2024-03-23T17:25:40;6.30;99.90
15967;DHT22;15175;48.154;11.534;2024-03-23T17:31:43;6.30;99.90
15967;DHT22;15175;48.154;11.534;2024-03-23T17:37:47;5.90;99.90
15967;DHT22;15175;48.154;11.534;2024-03-23T17:43:50;5.50;99.90
15967;DHT22;15175;48.154;11.534;2024-03-23T17:49:52;5.20;99.90
15967;DHT22;15175;48.154;11.534;2024-03-23T17:55:56;5.30;99.90
15967;DHT22;15175;48.154;11.534;2024-03-23T18:01:59;5.40;99.90
15967;DHT22;15175;48.154;11.534;2024-03-23T18:08:02;5.40;99.90
15967;DHT22;15175;48.154;11.534;2024-03-23T18:14:06;5.40;99.90
15967;DHT22;15175;48.154;11.534;2024-03-23T18:20:08;5.20;99.90
15967;DHT22;15175;48.154;11.534;2024-03-23T18:26:11;5.20;99.90
15967;DHT22;15175;48.154;11.534;2024-03-23T18:32:15;5.20;99.90
15967;DHT22;15175;48.154;11.534;2024-03-23T18:38:17;5.20;99.90
15967;DHT22;15175;48.154;11.534;2024-03-23T18:44:20;5.00;99.90
15967;DHT22;15175;48.154;11.534;2024-03-23T18:50:24;4.90;99.90
15967;DHT22;15175;48.154;11.534;2024-03-23T18:56:27;4.60;99.90
15967;DHT22;15175;48.154;11.534;2024-03-23T19:02:29;4.50;99.90
15967;DHT22;15175;48.154;11.534;2024-03-23T19:08:33;4.50;99.90
15967;DHT22;15175;48.154;11.534;2024-03-23T19:14:35;4.50;99.90
15967;DHT22;15175;48.154;11.534;2024-03-23T19:20:40;4.60;99.90
15967;DHT22;15175;48.154;11.534;2024-03-23T19:26:46;4.70;99.90
15967;DHT22;15175;48.154;11.534;2024-03-23T19:32:48;4.70;99.90
15967;DHT22;15175;48.154;11.534;2024-03-23T19:38:51;4.80;99.90
15967;DHT22;15175;48.154;11.534;2024-03-23T19:44:56;4.70;99.90
15967;DHT22;15175;48.154;11.534;2024-03-23T19:50:59;4.70;99.90
15967;DHT22;15175;48.154;11.534;2024-03-23T19:57:02;4.60;99.90
15967;DHT22;15175;48.154;11.534;2024-03-23T20:03:06;4.50;99.90
15967;DHT22;15175;48.154;11.534;2024-03-23T20:09:09;4.50;99.90
15967;DHT22;15175;48.154;11.534;2024-03-23T20:15:11;4.40;99.90
15967;DHT22;15175;48.154;11.534;2024-03-23T20:21:15;4.50;99.90
15967;DHT22;15175;48.154;11.534;2024-03-23T20:27:18;4.40;99.90
15967;DHT22;15175;48.154;11.534;2024-03-23T20:33:23;4.50;99.90
15967;DHT22;15175;48.154;11.534;2024-03-23T20:39:27;4.50;99.90
15967;DHT22;15175;48.154;11.534;2024-03-23T20:45:31;4.70;99.90
15967;DHT22;15175;48.154;11.534;2024-03-23T20:51:34;4.70;99.90
15967;DHT22;15175;48.154;11.534;2024-03-23T20:57:39;4.80;99.90
15967;DHT22;15175;48.154;11.534;2024-03-23T21:03:42;4.80;99.90
15967;DHT22;15175;48.154;11.534;2024-03-23T21:09:44;4.70;99.90
15967;DHT22;15175;48.154;11.534;2024-03-23T21:15:49;4.70;99.90
15967;DHT22;15175;48.154;11.534;2024-03-23T21:21:51;4.80;99.90
15967;DHT22;15175;48.154;11.534;2024-03-23T21:27:54;4.80;99.90
15967;DHT22;15175;48.154;11.534;2024-03-23T21:33:58;4.80;99.90
15967;DHT22;15175;48.154;11.534;2024-03-23T21:40:02;4.80;99.90
15967;DHT22;15175;48.154;11.534;2024-03-23T21:46:06;4.80;99.90
15967;DHT22;15175;48.154;11.534;2024-03-23T21:52:10;4.80;99.90
15967;DHT22;15175;48.154;11.534;2024-03-23T21:58:13;4.70;99.90
15967;DHT22;15175;48.154;11.534;2024-03-23T22:04:15;4.70;99.90
15967;DHT22;15175;48.154;11.534;2024-03-23T22:10:19;4.50;99.90
15967;DHT22;15175;48.154;11.534;2024-03-23T22:16:22;4.50;99.90
15967;DHT22;15175;48.154;11.534;2024-03-23T22:22:24;4.40;99.90
15967;DHT22;15175;48.154;11.534;2024-03-23T22:28:28;4.30;99.90
15967;DHT22;15175;48.154;11.534;2024-03-23T22:34:32;4.20;99.90
15967;DHT22;15175;48.154;11.534;2024-03-23T22:40:34;4.20;99.90
15967;DHT22;15175;48.154;11.534;2024-03-23T22:46:41;4.20;99.90
15967;DHT22;15175;48.154;11.534;2024-03-23T22:52:44;4.20;99.90
15967;DHT22;15175;48.154;11.534;2024-03-23T22:58:47;4.20;99.90
15967;DHT22;15175;48.154;11.534;2024-03-23T23:04:51;4.20;99.90
15967;DHT22;15175;48.154;11.534;2024-03-23T23:10:54;4.20;99.90
15967;DHT22;15175;48.154;11.534;2024-03-23T23:16:56;4.30;99.90
15967;DHT22;15175;48.154;11.534;2024-03-23T23:23:00;4.30;99.90
15967;DHT22;15175;48.154;11.534;2024-03-23T23:29:02;4.30;99.90
15967;DHT22;15175;48.154;11.534;2024-03-23T23:35:05;4.30;99.90
15967;DHT22;15175;48.154;11.534;2024-03-23T23:41:10;4.20;99.90
15967;DHT22;15175;48.154;11.534;2024-03-23T23:47:13;4.30;99.90
15967;DHT22;15175;48.154;11.534;2024-03-23T23:53:16;4.30;99.90
15967;DHT22;15175;48.154;11.534;2024-03-23T23:59:19;4.20;99.90
